createdAt,value
2019-05-26T00:00:48.853Z,48.30
2019-05-26T00:03:17.490Z,51.60
2019-05-26T00:05:46.483Z,48.80
2019-05-26T00:08:15.050Z,47.60
2019-05-26T00:10:43.707Z,43.70
2019-05-26T00:13:12.305Z,46.73
2019-05-26T00:15:40.935Z,43.93
2019-05-26T00:18:09.923Z,49.13
2019-05-26T00:20:38.508Z,43.73
2019-05-26T00:23:07.109Z,47.10
2019-05-26T00:25:35.749Z,46.90
2019-05-26T00:28:04.520Z,46.37
2019-05-26T00:30:33.095Z,48.00
2019-05-26T00:33:01.698Z,46.20
2019-05-26T00:35:30.283Z,43.10
2019-05-26T00:37:58.873Z,44.10
2019-05-26T00:40:27.591Z,41.13
2019-05-26T00:42:56.184Z,45.53
2019-05-26T00:45:25.611Z,43.17
2019-05-26T00:47:54.201Z,43.00
2019-05-26T00:50:22.914Z,45.27
2019-05-26T00:52:51.570Z,45.07
2019-05-26T00:55:20.881Z,46.60
2019-05-26T00:57:49.713Z,42.80
2019-05-26T01:00:21.361Z,46.57
2019-05-26T01:02:50.009Z,43.60
2019-05-26T01:05:18.653Z,47.50
2019-05-26T01:07:47.252Z,45.17
2019-05-26T01:10:15.986Z,43.77
2019-05-26T01:12:44.554Z,42.30
2019-05-26T01:15:13.310Z,39.57
2019-05-26T01:17:41.892Z,42.07
2019-05-26T01:20:11.015Z,43.67
2019-05-26T01:22:39.660Z,46.30
2019-05-26T01:25:08.883Z,50.47
2019-05-26T01:27:37.519Z,46.23
2019-05-26T01:30:08.398Z,49.10
2019-05-26T01:32:37.040Z,47.67
2019-05-26T01:35:08.823Z,46.90
2019-05-26T01:37:38.827Z,45.60
2019-05-26T01:40:08.554Z,46.87
2019-05-26T01:42:37.263Z,42.57
2019-05-26T01:45:06.694Z,48.10
2019-05-26T01:47:35.554Z,42.07
2019-05-26T01:50:07.031Z,49.97
2019-05-26T01:52:35.689Z,44.47
2019-05-26T01:55:06.218Z,43.67
2019-05-26T01:57:34.799Z,45.37
2019-05-26T02:00:06.131Z,47.60
2019-05-26T02:02:34.519Z,44.27
2019-05-26T02:05:03.758Z,45.60
2019-05-26T02:07:32.605Z,45.87
2019-05-26T02:10:01.186Z,45.23
2019-05-26T02:12:29.767Z,46.60
2019-05-26T02:14:58.341Z,44.57
2019-05-26T02:17:27.001Z,47.20
2019-05-26T02:19:55.914Z,47.50
2019-05-26T02:22:24.494Z,48.07
2019-05-26T02:24:53.381Z,42.40
2019-05-26T02:27:21.969Z,47.23
2019-05-26T02:29:50.536Z,40.93
2019-05-26T02:32:19.147Z,46.33
2019-05-26T02:34:47.727Z,45.73
2019-05-26T02:37:16.449Z,50.33
2019-05-26T02:39:45.287Z,45.37
2019-05-26T02:42:14.023Z,46.10
2019-05-26T02:44:42.596Z,51.20
2019-05-26T02:47:11.326Z,52.27
2019-05-26T02:49:39.870Z,47.50
2019-05-26T02:52:08.528Z,51.07
2019-05-26T02:54:37.365Z,54.27
2019-05-26T02:57:06.120Z,51.70
2019-05-26T02:59:34.761Z,52.53
2019-05-26T03:02:04.745Z,54.30
2019-05-26T03:04:33.684Z,60.77
2019-05-26T03:07:03.308Z,61.97
2019-05-26T03:09:34.320Z,61.13
2019-05-26T03:12:04.026Z,53.27
2019-05-26T03:14:34.621Z,72.30
2019-05-26T03:17:03.423Z,57.10
2019-05-26T03:19:34.479Z,56.17
2019-05-26T03:22:03.998Z,60.93
2019-05-26T03:24:33.430Z,55.63
2019-05-26T03:27:02.361Z,62.93
2019-05-26T03:29:30.945Z,62.70
2019-05-26T03:31:59.595Z,57.43
2019-05-26T03:34:28.149Z,54.70
2019-05-26T03:36:56.737Z,61.83
2019-05-26T03:39:42.358Z,63.30
2019-05-26T03:41:55.570Z,61.37
2019-05-26T03:44:24.412Z,59.93
2019-05-26T03:46:53.021Z,64.87
2019-05-26T03:49:21.616Z,62.20
2019-05-26T03:51:50.290Z,62.23
2019-05-26T03:54:18.840Z,59.10
2019-05-26T03:56:47.491Z,65.50
2019-05-26T03:59:16.047Z,58.23
2019-05-26T04:01:44.700Z,61.53
2019-05-26T04:04:13.297Z,54.80
2019-05-26T04:06:42.058Z,57.40
2019-05-26T04:09:10.617Z,61.23
2019-05-26T04:11:39.228Z,64.20
2019-05-26T04:14:08.150Z,57.30
2019-05-26T04:16:36.807Z,55.93
2019-05-26T04:19:05.455Z,62.97
2019-05-26T04:21:34.207Z,55.50
2019-05-26T04:24:03.110Z,56.47
2019-05-26T04:26:31.712Z,57.23
2019-05-26T04:29:00.332Z,55.00
2019-05-26T04:31:28.928Z,56.27
2019-05-26T04:33:57.879Z,61.00
2019-05-26T04:36:26.478Z,56.80
2019-05-26T04:38:55.463Z,62.07
2019-05-26T04:41:24.050Z,56.30
2019-05-26T04:43:52.619Z,58.23
2019-05-26T04:46:21.221Z,61.13
2019-05-26T04:48:49.802Z,61.17
2019-05-26T04:51:18.398Z,59.87
2019-05-26T04:53:46.965Z,48.77
2019-05-26T04:56:15.546Z,58.60
2019-05-26T04:58:44.126Z,54.47
2019-05-26T05:01:12.713Z,56.90
2019-05-26T05:03:41.730Z,52.10
2019-05-26T05:06:10.381Z,52.47
2019-05-26T05:08:38.999Z,59.17
2019-05-26T05:11:07.639Z,51.87
2019-05-26T05:13:36.215Z,53.43
2019-05-26T05:16:04.857Z,57.83
2019-05-26T05:18:33.539Z,55.77
2019-05-26T05:21:02.106Z,59.67
2019-05-26T05:23:30.718Z,56.67
2019-05-26T05:25:59.284Z,52.33
2019-05-26T05:28:27.868Z,48.67
2019-05-26T05:30:56.446Z,45.07
2019-05-26T05:33:25.002Z,50.90
2019-05-26T05:35:53.612Z,49.83
2019-05-26T05:38:22.252Z,45.90
2019-05-26T05:40:59.639Z,49.00
2019-05-26T05:43:21.475Z,59.70
2019-05-26T05:45:50.068Z,49.00
2019-05-26T05:48:18.652Z,53.23
2019-05-26T05:50:47.200Z,50.07
2019-05-26T05:53:15.823Z,47.53
2019-05-26T05:55:44.399Z,49.70
2019-05-26T05:58:12.994Z,51.97
2019-05-26T06:00:42.017Z,42.87
2019-05-26T06:03:10.608Z,49.37
2019-05-26T06:05:39.520Z,48.70
2019-05-26T06:08:08.157Z,42.80
2019-05-26T06:10:36.791Z,47.67
2019-05-26T06:13:05.431Z,44.20
2019-05-26T06:15:34.383Z,52.50
2019-05-26T06:18:03.495Z,43.43
2019-05-26T06:20:32.174Z,49.87
2019-05-26T06:23:00.760Z,45.83
2019-05-26T06:25:29.441Z,41.20
2019-05-26T06:27:58.021Z,45.50
2019-05-26T06:30:26.957Z,45.93
2019-05-26T06:32:55.523Z,39.90
2019-05-26T06:35:24.515Z,39.93
2019-05-26T06:37:53.611Z,41.27
2019-05-26T06:40:22.333Z,42.17
2019-05-26T06:42:50.982Z,37.33
2019-05-26T06:45:20.803Z,33.13
2019-05-26T06:47:49.360Z,39.33
2019-05-26T06:50:18.124Z,38.67
2019-05-26T06:52:46.699Z,37.03
2019-05-26T06:55:15.397Z,30.13
2019-05-26T06:57:44.382Z,36.47
2019-05-26T07:00:13.197Z,35.67
2019-05-26T07:02:41.809Z,30.30
2019-05-26T07:05:12.012Z,34.67
2019-05-26T07:07:40.630Z,32.20
2019-05-26T07:10:09.340Z,28.43
2019-05-26T07:12:38.223Z,33.93
2019-05-26T07:15:08.763Z,27.43
2019-05-26T07:17:37.512Z,28.63
2019-05-26T07:20:07.020Z,30.63
2019-05-26T07:22:36.062Z,23.67
2019-05-26T07:25:08.072Z,28.93
2019-05-26T07:27:36.721Z,26.17
2019-05-26T07:30:10.012Z,22.73
2019-05-26T07:32:38.826Z,25.10
2019-05-26T07:35:08.044Z,22.50
2019-05-26T07:37:37.018Z,24.67
2019-05-26T07:40:06.064Z,25.80
2019-05-26T07:42:35.513Z,25.57
2019-05-26T07:45:08.297Z,25.70
2019-05-26T07:47:36.862Z,26.40
2019-05-26T07:50:07.116Z,26.10
2019-05-26T07:52:35.974Z,25.50
2019-05-26T07:55:06.452Z,23.50
2019-05-26T07:57:35.166Z,24.27
2019-05-26T08:00:06.393Z,22.43
2019-05-26T08:02:35.001Z,21.13
2019-05-26T08:05:05.792Z,23.10
2019-05-26T08:07:34.448Z,18.60
2019-05-26T08:10:04.568Z,17.20
2019-05-26T08:12:33.204Z,19.50
2019-05-26T08:15:01.868Z,16.07
2019-05-26T08:17:30.447Z,13.13
2019-05-26T08:19:59.030Z,15.10
2019-05-26T08:22:27.651Z,21.00
2019-05-26T08:24:56.289Z,11.33
2019-05-26T08:27:25.249Z,12.70
2019-05-26T08:29:54.150Z,11.63
2019-05-26T08:32:22.709Z,8.10
2019-05-26T08:34:52.076Z,10.73
2019-05-26T08:37:20.943Z,11.67
2019-05-26T08:39:49.714Z,9.27
2019-05-26T08:42:27.051Z,7.20
2019-05-26T08:44:49.496Z,10.00
2019-05-26T08:47:18.036Z,6.57
2019-05-26T08:49:46.681Z,8.40
2019-05-26T08:52:15.339Z,8.10
2019-05-26T08:54:43.923Z,8.93
2019-05-26T08:57:12.481Z,9.43
2019-05-26T08:59:41.073Z,9.60
2019-05-26T09:02:09.716Z,8.57
2019-05-26T09:04:38.328Z,7.90
2019-05-26T09:07:06.946Z,9.80
2019-05-26T09:09:35.571Z,12.60
2019-05-26T09:12:04.287Z,8.90
2019-05-26T09:14:32.938Z,9.57
2019-05-26T09:17:01.497Z,9.30
2019-05-26T09:19:30.125Z,10.67
2019-05-26T09:21:58.885Z,7.20
2019-05-26T09:24:27.559Z,8.20
2019-05-26T09:26:56.222Z,10.27
2019-05-26T09:29:24.814Z,10.33
2019-05-26T09:31:53.458Z,8.53
2019-05-26T09:34:22.035Z,8.60
2019-05-26T09:36:50.610Z,10.63
2019-05-26T09:39:19.178Z,7.07
2019-05-26T09:41:47.804Z,8.17
2019-05-26T09:44:16.359Z,8.30
2019-05-26T09:46:44.993Z,9.20
2019-05-26T09:49:13.609Z,8.00
2019-05-26T09:51:42.243Z,9.77
2019-05-26T09:54:12.763Z,8.93
2019-05-26T09:56:41.373Z,11.27
2019-05-26T09:59:10.042Z,11.20
2019-05-26T10:01:38.608Z,12.93
2019-05-26T10:04:07.335Z,9.67
2019-05-26T10:06:36.074Z,11.53
2019-05-26T10:09:07.294Z,11.10
2019-05-26T10:11:35.923Z,9.33
2019-05-26T10:14:04.643Z,10.97
2019-05-26T10:16:33.262Z,12.00
2019-05-26T10:19:01.918Z,16.43
2019-05-26T10:21:30.485Z,8.23
2019-05-26T10:23:59.084Z,7.70
2019-05-26T10:26:28.004Z,9.00
2019-05-26T10:29:00.215Z,10.50
2019-05-26T10:31:26.800Z,10.60
2019-05-26T10:33:55.384Z,11.50
2019-05-26T10:36:24.417Z,9.10
2019-05-26T10:38:53.039Z,8.53
2019-05-26T10:41:21.616Z,6.00
2019-05-26T10:43:50.205Z,15.47
2019-05-26T10:46:18.821Z,7.10
2019-05-26T10:48:47.383Z,7.67
2019-05-26T10:51:16.138Z,7.93
2019-05-26T10:53:45.032Z,8.73
2019-05-26T10:56:13.942Z,5.07
2019-05-26T10:58:42.586Z,7.80
2019-05-26T11:01:11.389Z,6.43
2019-05-26T11:03:40.429Z,6.40
2019-05-26T11:06:09.057Z,5.60
2019-05-26T11:08:37.627Z,4.00
2019-05-26T11:11:06.291Z,6.50
2019-05-26T11:13:34.883Z,3.20
2019-05-26T11:16:03.917Z,5.17
2019-05-26T11:18:32.611Z,4.50
2019-05-26T11:21:01.266Z,4.63
2019-05-26T11:23:29.837Z,3.43
2019-05-26T11:25:58.422Z,9.40
2019-05-26T11:28:27.000Z,6.10
2019-05-26T11:30:55.913Z,5.63
2019-05-26T11:33:24.509Z,2.70
2019-05-26T11:35:53.103Z,6.03
2019-05-26T11:38:21.864Z,5.03
2019-05-26T11:40:50.466Z,4.73
2019-05-26T11:43:19.102Z,5.53
2019-05-26T11:45:47.668Z,4.33
2019-05-26T11:48:16.233Z,4.50
2019-05-26T11:50:44.807Z,7.00
2019-05-26T11:53:13.367Z,6.80
2019-05-26T11:55:42.825Z,7.00
2019-05-26T11:58:11.467Z,4.37
2019-05-26T12:00:40.113Z,4.90
2019-05-26T12:03:08.827Z,4.23
2019-05-26T12:05:37.463Z,5.50
2019-05-26T12:08:06.138Z,6.33
2019-05-26T12:10:34.715Z,6.63
2019-05-26T12:13:03.350Z,7.00
2019-05-26T12:15:31.998Z,3.80
2019-05-26T12:18:00.650Z,4.50
2019-05-26T12:20:29.293Z,3.90
2019-05-26T12:22:57.948Z,3.27
2019-05-26T12:25:26.704Z,6.60
2019-05-26T12:27:55.333Z,2.83
2019-05-26T12:30:24.005Z,3.57
2019-05-26T12:32:52.588Z,4.73
2019-05-26T12:35:21.327Z,5.00
2019-05-26T12:37:49.933Z,6.97
2019-05-26T12:40:19.471Z,6.60
2019-05-26T12:42:48.095Z,7.43
2019-05-26T12:45:18.480Z,8.17
2019-05-26T12:47:47.124Z,4.90
2019-05-26T12:50:16.135Z,7.03
2019-05-26T12:52:44.838Z,8.13
2019-05-26T12:55:13.656Z,6.90
2019-05-26T12:57:42.293Z,5.20
2019-05-26T13:00:11.807Z,7.63
2019-05-26T13:02:40.463Z,13.23
2019-05-26T13:05:10.010Z,9.57
2019-05-26T13:07:38.652Z,9.20
2019-05-26T13:10:08.054Z,7.07
2019-05-26T13:12:36.832Z,9.00
2019-05-26T13:15:10.130Z,6.27
2019-05-26T13:17:38.980Z,6.80
2019-05-26T13:20:09.299Z,6.13
2019-05-26T13:22:38.902Z,5.40
2019-05-26T13:25:09.363Z,9.50
2019-05-26T13:27:38.464Z,4.20
2019-05-26T13:30:18.065Z,7.53
2019-05-26T13:32:46.654Z,4.67
2019-05-26T13:35:15.471Z,4.67
2019-05-26T13:37:44.112Z,3.00
2019-05-26T13:40:13.108Z,4.40
2019-05-26T13:42:42.160Z,4.73
2019-05-26T13:45:21.835Z,5.07
2019-05-26T13:47:42.014Z,4.27
2019-05-26T13:50:11.309Z,4.43
2019-05-26T13:52:39.868Z,5.27
2019-05-26T13:55:12.171Z,2.83
2019-05-26T13:57:40.795Z,3.87
2019-05-26T14:00:11.788Z,5.83
2019-05-26T14:02:40.459Z,4.43
2019-05-26T14:05:09.307Z,3.77
2019-05-26T14:07:37.867Z,4.43
2019-05-26T14:10:07.794Z,4.83
2019-05-26T14:12:36.621Z,2.47
2019-05-26T14:15:07.799Z,4.47
2019-05-26T14:17:38.536Z,4.67
2019-05-26T14:20:08.022Z,4.87
2019-05-26T14:22:36.719Z,4.23
2019-05-26T14:25:07.410Z,3.73
2019-05-26T14:27:36.089Z,3.47
2019-05-26T14:30:06.668Z,4.40
2019-05-26T14:32:35.379Z,11.20
2019-05-26T14:35:06.409Z,3.47
2019-05-26T14:37:35.457Z,4.60
2019-05-26T14:40:07.099Z,2.93
2019-05-26T14:42:35.656Z,6.27
2019-05-26T14:45:06.195Z,3.67
2019-05-26T14:47:34.852Z,4.70
2019-05-26T14:50:05.668Z,3.53
2019-05-26T14:52:36.619Z,2.77
2019-05-26T14:55:05.953Z,3.93
2019-05-26T14:57:34.632Z,7.37
2019-05-26T15:00:04.759Z,5.47
2019-05-26T15:02:33.425Z,3.33
2019-05-26T15:05:02.327Z,5.23
2019-05-26T15:07:31.206Z,4.17
2019-05-26T15:09:59.961Z,3.97
2019-05-26T15:12:28.677Z,2.17
2019-05-26T15:14:57.306Z,5.30
2019-05-26T15:17:26.263Z,3.37
2019-05-26T15:19:54.831Z,3.17
2019-05-26T15:22:23.482Z,3.43
2019-05-26T15:24:52.041Z,7.93
2019-05-26T15:27:20.658Z,3.97
2019-05-26T15:29:49.220Z,2.43
2019-05-26T15:32:18.106Z,4.60
2019-05-26T15:34:46.703Z,2.50
2019-05-26T15:37:15.329Z,1.70
2019-05-26T15:39:43.990Z,2.70
2019-05-26T15:42:12.686Z,1.73
2019-05-26T15:44:41.276Z,2.90
2019-05-26T15:47:09.907Z,1.03
2019-05-26T15:49:38.495Z,2.37
2019-05-26T15:52:07.132Z,2.30
2019-05-26T15:54:35.763Z,4.37
2019-05-26T15:57:04.463Z,1.83
2019-05-26T15:59:33.077Z,4.27
2019-05-26T16:02:01.618Z,3.07
2019-05-26T16:04:30.173Z,3.47
2019-05-26T16:06:58.770Z,2.93
2019-05-26T16:09:27.406Z,2.57
2019-05-26T16:11:56.068Z,4.27
2019-05-26T16:14:24.918Z,3.40
2019-05-26T16:16:53.677Z,4.73
2019-05-26T16:19:22.220Z,4.97
2019-05-26T16:21:50.893Z,11.93
2019-05-26T16:24:19.477Z,7.10
2019-05-26T16:26:48.068Z,4.80
2019-05-26T16:29:16.626Z,6.73
2019-05-26T16:31:45.244Z,4.17
2019-05-26T16:34:13.792Z,6.17
2019-05-26T16:36:42.617Z,4.53
2019-05-26T16:39:11.313Z,3.73
2019-05-26T16:41:39.957Z,5.30
2019-05-26T16:44:08.530Z,4.37
2019-05-26T16:46:37.188Z,5.53
2019-05-26T16:49:05.840Z,6.13
2019-05-26T16:51:34.401Z,4.13
2019-05-26T16:54:03.057Z,3.37
2019-05-26T16:56:31.684Z,4.77
2019-05-26T16:59:00.350Z,5.27
2019-05-26T17:01:28.911Z,4.03
2019-05-26T17:03:57.922Z,6.77
2019-05-26T17:06:26.572Z,5.40
2019-05-26T17:08:55.400Z,6.23
2019-05-26T17:11:23.994Z,4.93
2019-05-26T17:13:52.554Z,5.47
2019-05-26T17:16:21.195Z,5.33
2019-05-26T17:18:49.871Z,5.37
2019-05-26T17:21:18.518Z,5.80
2019-05-26T17:23:47.089Z,7.57
2019-05-26T17:26:15.685Z,6.33
2019-05-26T17:28:44.612Z,6.27
2019-05-26T17:31:13.163Z,8.20
2019-05-26T17:33:41.786Z,8.17
2019-05-26T17:36:10.796Z,8.73
2019-05-26T17:38:39.668Z,8.80
2019-05-26T17:41:08.322Z,10.27
2019-05-26T17:43:37.022Z,11.17
2019-05-26T17:46:05.629Z,11.07
2019-05-26T17:48:34.218Z,10.07
2019-05-26T17:51:02.784Z,10.73
2019-05-26T17:53:31.760Z,11.73
2019-05-26T17:56:00.324Z,17.73
2019-05-26T17:58:28.923Z,13.73
2019-05-26T18:00:57.802Z,10.87
2019-05-26T18:03:26.384Z,8.40
2019-05-26T18:05:55.031Z,14.20
2019-05-26T18:08:23.690Z,13.23
2019-05-26T18:10:52.413Z,12.97
2019-05-26T18:13:21.341Z,11.77
2019-05-26T18:15:50.089Z,8.43
2019-05-26T18:18:18.684Z,10.87
2019-05-26T18:20:47.252Z,13.33
2019-05-26T18:23:15.820Z,9.03
2019-05-26T18:25:44.474Z,9.43
2019-05-26T18:28:13.048Z,10.87
2019-05-26T18:30:41.794Z,10.83
2019-05-26T18:33:10.438Z,11.13
2019-05-26T18:35:39.013Z,10.83
2019-05-26T18:38:07.663Z,9.07
2019-05-26T18:40:36.321Z,10.63
2019-05-26T18:43:04.975Z,9.57
2019-05-26T18:45:33.569Z,9.87
2019-05-26T18:48:03.693Z,8.47
2019-05-26T18:50:32.384Z,9.90
2019-05-26T18:53:01.003Z,10.00
2019-05-26T18:55:29.886Z,9.93
2019-05-26T18:57:58.493Z,10.43
2019-05-26T19:00:30.899Z,5.33
2019-05-26T19:02:57.525Z,6.80
2019-05-26T19:05:33.658Z,7.97
2019-05-26T19:07:56.931Z,6.87
2019-05-26T19:10:25.638Z,6.70
2019-05-26T19:12:54.369Z,4.90
2019-05-26T19:15:23.069Z,9.67
2019-05-26T19:17:51.741Z,5.17
2019-05-26T19:20:20.458Z,5.37
2019-05-26T19:22:49.085Z,5.40
2019-05-26T19:25:17.788Z,4.33
2019-05-26T19:27:46.502Z,9.37
2019-05-26T19:30:15.847Z,5.17
2019-05-26T19:32:44.496Z,5.43
2019-05-26T19:35:13.629Z,6.33
2019-05-26T19:37:43.044Z,5.47
2019-05-26T19:40:12.445Z,5.27
2019-05-26T19:42:41.079Z,6.63
2019-05-26T19:45:09.823Z,5.20
2019-05-26T19:47:38.451Z,6.83
2019-05-26T19:50:07.778Z,7.23
2019-05-26T19:52:36.440Z,4.80
2019-05-26T19:55:08.130Z,8.87
2019-05-26T19:57:36.872Z,6.87
2019-05-26T20:00:13.844Z,9.27
2019-05-26T20:02:42.864Z,7.70
2019-05-26T20:05:12.043Z,9.23
2019-05-26T20:07:40.639Z,7.60
2019-05-26T20:10:10.552Z,7.60
2019-05-26T20:12:39.439Z,8.97
2019-05-26T20:15:09.153Z,10.63
2019-05-26T20:17:38.090Z,11.00
2019-05-26T20:20:09.522Z,12.60
2019-05-26T20:22:38.202Z,13.53
2019-05-26T20:25:10.479Z,15.40
2019-05-26T20:27:39.138Z,13.30
2019-05-26T20:30:08.676Z,16.17
2019-05-26T20:32:37.309Z,17.53
2019-05-26T20:35:07.554Z,20.13
2019-05-26T20:37:36.408Z,20.67
2019-05-26T20:40:08.986Z,20.47
2019-05-26T20:42:37.641Z,18.37
2019-05-26T20:45:08.122Z,20.37
2019-05-26T20:47:36.839Z,21.97
2019-05-26T20:50:09.420Z,23.30
2019-05-26T20:52:38.470Z,27.40
2019-05-26T20:55:07.801Z,22.33
2019-05-26T20:57:36.438Z,21.17
2019-05-26T21:00:11.349Z,21.77
2019-05-26T21:02:41.056Z,21.30
2019-05-26T21:05:10.818Z,21.33
2019-05-26T21:07:39.914Z,18.97
2019-05-26T21:10:08.744Z,20.90
2019-05-26T21:12:37.406Z,25.93
2019-05-26T21:15:07.866Z,19.37
2019-05-26T21:17:36.422Z,24.27
2019-05-26T21:20:07.118Z,19.30
2019-05-26T21:22:35.773Z,20.73
2019-05-26T21:25:06.913Z,23.43
2019-05-26T21:27:39.531Z,18.73
2019-05-26T21:30:09.303Z,20.70
2019-05-26T21:32:38.110Z,23.13
2019-05-26T21:35:10.067Z,22.37
2019-05-26T21:37:41.746Z,22.70
2019-05-26T21:40:10.968Z,26.87
2019-05-26T21:42:39.824Z,21.43
2019-05-26T21:45:09.861Z,19.77
2019-05-26T21:47:38.704Z,22.17
2019-05-26T21:50:10.952Z,19.43
2019-05-26T21:52:44.678Z,20.20
2019-05-26T21:55:13.832Z,20.83
2019-05-26T21:57:45.435Z,24.43
2019-05-26T22:00:16.375Z,18.00
2019-05-26T22:02:49.701Z,29.97
2019-05-26T22:05:20.032Z,26.43
2019-05-26T22:07:48.646Z,25.07
2019-05-26T22:10:17.379Z,25.33
2019-05-26T22:12:45.958Z,24.60
2019-05-26T22:15:16.154Z,28.40
2019-05-26T22:17:45.078Z,28.50
2019-05-26T22:20:13.814Z,27.80
2019-05-26T22:22:42.403Z,26.73
2019-05-26T22:25:11.594Z,29.77
2019-05-26T22:27:40.317Z,31.83
2019-05-26T22:30:10.548Z,33.87
2019-05-26T22:32:39.140Z,38.60
2019-05-26T22:35:10.815Z,34.70
2019-05-26T22:37:39.504Z,33.97
2019-05-26T22:40:08.824Z,33.67
2019-05-26T22:42:37.427Z,34.47
2019-05-26T22:45:08.249Z,36.13
2019-05-26T22:47:36.910Z,36.20
2019-05-26T22:50:10.094Z,30.20
2019-05-26T22:52:38.770Z,40.13
2019-05-26T22:55:08.484Z,38.30
2019-05-26T22:57:37.343Z,37.77
2019-05-26T23:00:10.644Z,40.33
2019-05-26T23:02:39.635Z,42.63
2019-05-26T23:05:09.134Z,41.40
2019-05-26T23:07:37.740Z,38.10
2019-05-26T23:10:07.532Z,41.03
2019-05-26T23:12:36.201Z,38.77
2019-05-26T23:15:08.850Z,36.33
2019-05-26T23:17:37.915Z,33.87
2019-05-26T23:20:07.433Z,36.60
2019-05-26T23:22:36.413Z,35.73
2019-05-26T23:25:06.244Z,40.27
2019-05-26T23:27:35.175Z,35.67
2019-05-26T23:30:06.658Z,33.17
2019-05-26T23:32:35.683Z,31.47
2019-05-26T23:35:06.589Z,27.67
2019-05-26T23:37:35.187Z,22.97
2019-05-26T23:40:07.434Z,19.47
2019-05-26T23:42:36.162Z,19.77
2019-05-26T23:45:09.009Z,22.83
2019-05-26T23:47:37.550Z,24.17
2019-05-26T23:50:07.771Z,19.07
2019-05-26T23:52:36.751Z,16.37
2019-05-26T23:55:08.929Z,20.47
2019-05-26T23:57:37.513Z,20.13
